Time;durP1;ratioP1;P1;durP2;ratioP2;P2;SDS_P1;SDS_P2;PMS_P1;PMS_P2;Temp;Humidity;BMP_temperature;BMP_pressure;BME280_temperature;BME280_humidity;BME280_pressure;Samples;Min_cycle;Max_cycle;Signal;HPM_P1;HPM_P2
2022/08/19 00:01:03;;;;;;;;;22.75;21.00;;;;;18.01;68.24;99584.91;5096606;28;8907;-63
2022/08/19 00:03:30;;;;;;;;;21.00;19.00;;;;;18.01;68.10;99595.69;5096545;28;8880;-64
2022/08/19 00:05:59;;;;;;;;;25.25;22.00;;;;;18.00;68.32;99601.25;5096399;28;9443;-63
2022/08/19 00:08:26;;;;;;;;;24.00;21.00;;;;;17.96;68.14;99608.84;5096483;28;8818;-63
2022/08/19 00:10:54;;;;;;;;;23.00;19.25;;;;;17.92;68.61;99609.38;5096216;28;8844;-63
2022/08/19 00:13:22;;;;;;;;;23.50;20.75;;;;;17.87;68.07;99612.63;5096456;28;8826;-63
2022/08/19 00:15:50;;;;;;;;;20.00;18.75;;;;;17.82;68.24;99611.44;5095979;28;8852;-63
2022/08/19 00:18:17;;;;;;;;;21.00;17.25;;;;;17.81;68.57;99615.16;5096318;28;8872;-64
2022/08/19 00:20:45;;;;;;;;;25.00;23.00;;;;;17.80;68.84;99616.16;5095940;28;8841;-64
2022/08/19 00:23:13;;;;;;;;;10.00;9.50;;;;;17.79;68.86;99612.66;5096112;28;9638;-64
2022/08/19 00:25:41;;;;;;;;;24.25;21.75;;;;;17.78;68.66;99604.75;5095773;28;8838;-64
2022/08/19 00:28:08;;;;;;;;;27.40;23.80;;;;;17.77;68.70;99606.56;5096100;28;8881;-64
2022/08/19 00:30:36;;;;;;;;;24.00;19.00;;;;;17.76;68.18;99617.56;5096071;28;8838;-63
2022/08/19 00:33:04;;;;;;;;;20.00;19.00;;;;;17.76;68.33;99606.78;5096057;28;8838;-64
2022/08/19 00:35:33;;;;;;;;;21.75;19.50;;;;;17.76;68.42;99602.22;5095907;28;8825;-64
2022/08/19 00:38:01;;;;;;;;;14.75;13.75;;;;;17.75;68.65;99605.94;5095827;28;8848;-64
2022/08/19 00:40:30;;;;;;;;;21.50;19.00;;;;;17.75;68.15;99600.53;5096422;28;9323;-63
2022/08/19 00:42:58;;;;;;;;;24.75;21.00;;;;;17.75;68.40;99600.53;5095666;28;8976;-64
2022/08/19 00:45:25;;;;;;;;;19.75;18.00;;;;;17.75;68.75;99595.16;5096100;28;8860;-64
2022/08/19 00:47:53;;;;;;;;;24.25;23.75;;;;;17.74;68.52;99595.31;5095853;28;8968;-64
2022/08/19 00:50:21;;;;;;;;;19.25;18.00;;;;;17.73;68.24;99594.50;5095815;28;8976;-64
2022/08/19 00:52:48;;;;;;;;;20.50;19.00;;;;;17.71;68.66;99593.84;5095986;28;8842;-64
2022/08/19 00:55:16;;;;;;;;;29.00;27.50;;;;;17.69;68.75;99603.09;5095545;28;8834;-64
2022/08/19 00:57:45;;;;;;;;;23.00;18.75;;;;;17.68;68.55;99602.25;5096003;28;8869;-64
2022/08/19 01:00:13;;;;;;;;;21.50;20.75;;;;;17.67;68.69;99603.28;5095234;28;8852;-64
2022/08/19 01:02:41;;;;;;;;;15.75;15.50;;;;;17.64;68.35;99594.69;5095596;28;8866;-63
2022/08/19 01:05:09;;;;;;;;;23.00;22.25;;;;;17.63;68.51;99601.94;5095402;28;8856;-64
2022/08/19 01:07:37;;;;;;;;;22.00;21.25;;;;;17.62;69.20;99605.63;5095504;28;8951;-64
2022/08/19 01:10:05;;;;;;;;;19.25;16.00;;;;;17.59;68.34;99615.91;5095516;28;8826;-64
2022/08/19 01:12:33;;;;;;;;;20.25;17.25;;;;;17.57;68.94;99609.88;5095307;28;8960;-64
2022/08/19 01:15:00;;;;;;;;;21.75;21.00;;;;;17.53;69.08;99601.31;5094981;28;8956;-63
2022/08/19 01:17:28;;;;;;;;;17.25;15.50;;;;;17.49;68.80;99597.31;5095316;28;8927;-64
2022/08/19 01:19:56;;;;;;;;;23.00;21.25;;;;;17.46;69.16;99599.50;5094960;28;8879;-63
2022/08/19 01:22:24;;;;;;;;;20.25;20.00;;;;;17.42;69.29;99601.69;5094947;28;8822;-64
2022/08/19 01:24:59;;;;;;;;;28.00;20.25;;;;;17.39;69.01;99599.34;5095543;28;9515;-63
2022/08/19 01:27:26;;;;;;;;;28.00;21.50;;;;;17.38;69.54;99603.03;5095052;28;8830;-63
2022/08/19 01:30:02;;;;;;;;;19.75;17.00;;;;;17.33;69.49;99591.91;5095072;28;8864;-64
2022/08/19 01:32:30;;;;;;;;;21.75;19.75;;;;;17.30;69.41;99600.34;5097390;28;8858;-64
2022/08/19 01:35:02;;;;;;;;;19.75;16.25;;;;;17.28;69.55;99591.63;5097811;28;8922;-64
2022/08/19 01:37:30;;;;;;;;;12.75;12.50;;;;;17.25;69.56;99589.25;5095988;28;9012;-64
2022/08/19 01:39:58;;;;;;;;;29.00;27.00;;;;;17.24;69.38;99578.69;5094833;28;8837;-63
2022/08/19 01:42:26;;;;;;;;;23.50;19.75;;;;;17.22;69.46;99584.22;5094832;28;8837;-63
2022/08/19 01:44:57;;;;;;;;;20.50;18.75;;;;;17.22;69.86;99576.16;5096841;28;8888;-64
2022/08/19 01:47:24;;;;;;;;;27.25;25.50;;;;;17.23;69.54;99583.19;5097346;28;8829;-64
2022/08/19 01:49:52;;;;;;;;;24.25;22.00;;;;;17.23;69.35;99572.44;5094669;28;8957;-63
2022/08/19 01:52:20;;;;;;;;;15.75;13.00;;;;;17.24;69.24;99570.59;5094583;28;8818;-63
2022/08/19 01:54:47;;;;;;;;;26.50;21.00;;;;;17.26;69.09;99576.63;5093652;28;8830;-63
2022/08/19 01:57:15;;;;;;;;;23.50;20.00;;;;;17.27;69.37;99572.94;5094580;28;9539;-64
2022/08/19 01:59:43;;;;;;;;;28.00;22.50;;;;;17.28;69.69;99570.06;5094432;28;8830;-64
2022/08/19 02:02:11;;;;;;;;;26.50;22.25;;;;;17.32;69.33;99563.31;5094254;28;9336;-64
2022/08/19 02:04:39;;;;;;;;;24.50;20.75;;;;;17.36;69.06;99567.38;5094125;28;8830;-64
2022/08/19 02:07:07;;;;;;;;;27.75;23.50;;;;;17.40;69.33;99566.00;5093791;28;8846;-64
2022/08/19 02:09:35;;;;;;;;;26.50;22.00;;;;;17.45;69.25;99563.66;5096440;28;8826;-64
2022/08/19 02:12:03;;;;;;;;;30.00;22.50;;;;;17.48;68.54;99565.97;5097034;28;8818;-64
2022/08/19 02:14:31;;;;;;;;;24.00;22.50;;;;;17.50;69.25;99568.50;5096435;28;8868;-64
2022/08/19 02:16:59;;;;;;;;;23.00;21.00;;;;;17.46;69.13;99568.00;5096470;28;8956;-64
2022/08/19 02:19:27;;;;;;;;;23.00;22.00;;;;;17.40;69.16;99568.69;5094109;28;8976;-64
2022/08/19 02:21:55;;;;;;;;;21.25;21.00;;;;;17.34;69.69;99579.31;5093795;28;8846;-63
2022/08/19 02:24:22;;;;;;;;;15.25;11.50;;;;;17.25;69.99;99589.25;5094000;28;8841;-64
2022/08/19 02:26:50;;;;;;;;;19.50;18.25;;;;;17.17;69.68;99588.44;5094062;28;8834;-63
2022/08/19 02:29:18;;;;;;;;;20.75;18.25;;;;;17.10;70.36;99588.28;5096165;28;8872;-64
2022/08/19 02:31:46;;;;;;;;;20.00;18.00;;;;;17.05;70.38;99592.50;5096296;28;9001;-64
2022/08/19 02:34:14;;;;;;;;;20.50;18.75;;;;;17.00;69.91;99586.81;5096484;28;8836;-64
2022/08/19 02:36:41;;;;;;;;;20.50;17.75;;;;;16.94;70.61;99580.25;5096185;28;8849;-64
2022/08/19 02:39:08;;;;;;;;;19.25;18.00;;;;;16.92;70.35;99574.22;5094687;28;8962;-64
2022/08/19 02:41:36;;;;;;;;;22.00;21.25;;;;;16.90;70.64;99570.84;5093591;28;8927;-64
2022/08/19 02:44:04;;;;;;;;;24.50;20.00;;;;;16.90;70.59;99568.16;5095027;28;8962;-64
2022/08/19 02:46:51;;;;;;;;;20.50;17.50;;;;;16.89;70.21;99582.63;5095844;28;8846;-64
2022/08/19 02:49:19;;;;;;;;;27.00;23.50;;;;;16.88;70.24;99582.78;5095570;28;8822;-63
2022/08/19 02:51:47;;;;;;;;;22.50;18.75;;;;;16.89;70.39;99590.69;5095928;28;8834;-64
2022/08/19 02:54:15;;;;;;;;;23.50;21.00;;;;;16.86;70.41;99588.34;5094450;28;8830;-64
2022/08/19 02:56:42;;;;;;;;;21.00;21.00;;;;;16.86;70.29;99579.44;5093146;28;8891;-63
2022/08/19 02:59:11;;;;;;;;;27.25;22.75;;;;;16.84;70.46;99586.81;5093220;28;8911;-63
2022/08/19 03:01:40;;;;;;;;;17.00;15.75;;;;;16.82;70.63;99576.25;5094473;28;8976;-64
2022/08/19 03:04:08;;;;;;;;;16.50;14.75;;;;;16.82;70.20;99573.56;5095528;28;8841;-64
2022/08/19 03:06:36;;;;;;;;;21.00;19.00;;;;;16.82;70.65;99565.50;5095192;28;8958;-64
2022/08/19 03:09:04;;;;;;;;;21.50;20.00;;;;;16.83;70.44;99563.63;5096187;28;8845;-63
2022/08/19 03:11:32;;;;;;;;;24.50;24.00;;;;;16.84;70.04;99566.16;5095094;28;8846;-64
2022/08/19 03:13:59;;;;;;;;;25.75;23.75;;;;;16.87;70.37;99559.59;5095756;28;9618;-64
2022/08/19 03:16:27;;;;;;;;;23.75;21.50;;;;;16.90;70.50;99565.47;5094399;28;8845;-64
2022/08/19 03:19:00;;;;;;;;;27.00;24.00;;;;;16.92;70.41;99558.06;5094913;28;8853;-64
2022/08/19 03:21:28;;;;;;;;;24.25;22.50;;;;;16.96;70.13;99561.25;5095270;28;9551;-64
2022/08/19 03:23:56;;;;;;;;;29.00;24.50;;;;;16.97;70.50;99561.09;5094906;28;8857;-64
2022/08/19 03:26:23;;;;;;;;;24.00;21.00;;;;;16.99;69.67;99567.13;5093632;28;8814;-63
2022/08/19 03:28:51;;;;;;;;;25.50;21.25;;;;;17.02;70.18;99572.16;5093031;28;8846;-64
2022/08/19 03:31:25;;;;;;;;;23.00;21.25;;;;;17.05;70.17;99576.34;5092745;28;9173;-64
2022/08/19 03:34:12;;;;;;;;;26.00;22.00;;;;;17.08;69.99;99563.41;5092298;28;8838;-64
2022/08/19 03:36:40;;;;;;;;;32.75;29.75;;;;;17.12;69.63;99574.66;5092853;28;8838;-64
2022/08/19 03:39:08;;;;;;;;;24.00;21.00;;;;;17.13;69.95;99573.66;5093268;28;8832;-64
2022/08/19 03:41:36;;;;;;;;;22.50;22.00;;;;;17.14;69.92;99578.88;5093033;28;8848;-64
2022/08/19 03:44:12;;;;;;;;;25.75;23.75;;;;;17.16;69.98;99576.84;5093119;28;8838;-64
2022/08/19 03:46:45;;;;;;;;;34.00;29.00;;;;;17.14;70.15;99578.88;5094443;28;8842;-64
2022/08/19 03:49:13;;;;;;;;;29.75;27.25;;;;;17.13;69.47;99582.56;5095205;28;8996;-64
2022/08/19 03:51:41;;;;;;;;;23.75;23.75;;;;;17.12;69.67;99591.66;5094745;28;8868;-64
2022/08/19 03:54:09;;;;;;;;;23.00;20.00;;;;;17.11;70.12;99589.97;5095496;28;8822;-64
2022/08/19 03:56:37;;;;;;;;;24.25;22.50;;;;;17.08;70.44;99606.44;5092659;28;8826;-64
2022/08/19 03:59:04;;;;;;;;;24.75;21.50;;;;;17.02;69.81;99607.13;5093194;28;9222;-63
2022/08/19 04:01:32;;;;;;;;;17.00;14.00;;;;;16.94;70.41;99603.63;5092310;28;8838;-64
2022/08/19 04:04:02;;;;;;;;;27.25;21.50;;;;;16.87;70.52;99597.25;5093578;28;8841;-64
2022/08/19 04:06:31;;;;;;;;;17.00;16.00;;;;;16.81;70.85;99592.56;5095187;28;9518;-64
2022/08/19 04:08:59;;;;;;;;;21.00;19.50;;;;;16.76;70.82;99601.13;5094942;28;8834;-64
2022/08/19 04:11:27;;;;;;;;;20.00;17.00;;;;;16.72;71.07;99604.34;5092742;28;8832;-64
2022/08/19 04:14:10;;;;;;;;;15.50;13.50;;;;;16.65;70.84;99598.75;5094693;28;8838;-64
2022/08/19 04:16:38;;;;;;;;;18.00;16.00;;;;;16.60;70.91;99598.44;5094966;28;9634;-63
2022/08/19 04:19:06;;;;;;;;;20.25;18.25;;;;;16.53;70.71;99600.13;5098067;28;8830;-64
2022/08/19 04:21:33;;;;;;;;;21.50;16.00;;;;;16.48;71.48;99591.72;5098387;28;8910;-64
2022/08/19 04:24:01;;;;;;;;;22.00;20.00;;;;;16.44;71.47;99593.06;5098451;28;8852;-64
2022/08/19 04:26:31;;;;;;;;;22.75;20.00;;;;;16.42;71.96;99592.38;5098099;28;9632;-63
2022/08/19 04:28:59;;;;;;;;;21.25;19.75;;;;;16.40;71.20;99605.16;5098652;28;8856;-64
2022/08/19 04:31:27;;;;;;;;;19.50;17.50;;;;;16.38;71.52;99604.50;5096465;28;8956;-64
2022/08/19 04:33:56;;;;;;;;;22.50;21.50;;;;;16.38;71.25;99602.81;5097556;28;8849;-64
2022/08/19 04:36:24;;;;;;;;;20.25;18.75;;;;;16.39;71.28;99611.53;5098360;28;8837;-64
2022/08/19 04:38:52;;;;;;;;;27.75;21.75;;;;;16.47;71.10;99605.34;5098093;28;8959;-64
2022/08/19 04:44:05;;;;;;;;;22.00;21.00;;;;;16.54;71.17;99603.63;5098151;28;8973;-64
2022/08/19 04:46:33;;;;;;;;;25.00;22.50;;;;;16.52;71.12;99598.47;5098114;28;8846;-64
2022/08/19 04:49:07;;;;;;;;;18.25;15.75;;;;;16.54;70.98;99603.63;5098012;28;8834;-64
2022/08/19 04:51:40;;;;;;;;;20.00;17.00;;;;;16.56;71.18;99607.03;5097882;28;8833;-64
2022/08/19 04:54:08;;;;;;;;;22.00;20.00;;;;;16.61;71.20;99616.25;5097566;28;8838;-66
2022/08/19 04:56:36;;;;;;;;;16.75;15.50;;;;;16.64;70.46;99610.53;5098074;28;8838;-64
2022/08/19 04:59:04;;;;;;;;;24.25;21.50;;;;;16.64;70.42;99610.53;5097314;28;9503;-64
2022/08/19 05:01:32;;;;;;;;;22.75;20.50;;;;;16.65;70.43;99616.75;5096358;28;8845;-63
2022/08/19 05:04:00;;;;;;;;;21.50;21.50;;;;;16.65;70.59;99612.22;5097533;28;9531;-64
2022/08/19 05:06:28;;;;;;;;;20.75;18.50;;;;;16.65;70.54;99609.53;5097108;28;8852;-64
2022/08/19 05:08:56;;;;;;;;;23.25;21.50;;;;;16.68;70.84;99608.34;5096603;28;8829;-64
2022/08/19 05:11:24;;;;;;;;;23.50;20.75;;;;;16.70;70.33;99614.41;5096549;28;8952;-64
2022/08/19 05:13:53;;;;;;;;;15.75;15.00;;;;;16.74;70.65;99615.75;5094374;28;8908;-64
2022/08/19 05:16:20;;;;;;;;;18.50;15.25;;;;;16.77;70.25;99620.78;5095586;28;8838;-64
2022/08/19 05:24:19;;;;;;;;;17.25;15.00;;;;;16.85;70.79;99621.63;5094801;28;8841;-65
2022/08/19 05:26:47;;;;;;;;;21.75;19.50;;;;;16.84;70.45;99629.84;5095269;28;8964;-64
2022/08/19 05:29:14;;;;;;;;;18.00;14.00;;;;;16.81;70.28;99631.06;5093869;28;8838;-64
2022/08/19 05:31:42;;;;;;;;;19.75;18.25;;;;;16.79;70.85;99627.66;5095066;28;8989;-64
2022/08/19 05:34:10;;;;;;;;;19.75;18.25;;;;;16.80;70.22;99636.59;5093529;28;8945;-65
2022/08/19 05:36:46;;;;;;;;;24.50;21.50;;;;;16.86;70.45;99634.06;5095314;28;8899;-64
2022/08/19 05:39:15;;;;;;;;;19.00;18.00;;;;;16.93;69.88;99627.00;5095536;28;8833;-68
2022/08/19 05:41:43;;;;;;;;;16.00;15.50;;;;;16.98;70.13;99630.03;5095298;28;8854;-65
2022/08/19 05:44:10;;;;;;;;;26.25;24.50;;;;;17.05;70.09;99624.78;5094470;28;8960;-65
2022/08/19 05:46:39;;;;;;;;;19.75;18.75;;;;;17.10;69.50;99625.94;5095615;28;8923;-65
2022/08/19 05:49:07;;;;;;;;;25.00;21.25;;;;;17.19;69.80;99629.47;5096712;28;8980;-63
2022/08/19 05:51:34;;;;;;;;;19.50;18.25;;;;;17.29;69.75;99630.97;5095037;28;8842;-64
2022/08/19 05:54:02;;;;;;;;;22.25;21.50;;;;;17.39;68.79;99626.25;5093371;28;8958;-64
2022/08/19 05:56:31;;;;;;;;;18.50;17.00;;;;;17.49;68.79;99620.69;5091240;28;8850;-63
2022/08/19 05:58:59;;;;;;;;;22.00;21.25;;;;;17.62;68.46;99624.50;5092034;28;8841;-63
2022/08/19 06:01:27;;;;;;;;;20.75;15.50;;;;;17.74;68.29;99620.41;5092038;28;8838;-63
2022/08/19 06:03:55;;;;;;;;;19.00;18.00;;;;;17.87;68.43;99622.53;5092256;28;8846;-65
2022/08/19 06:06:23;;;;;;;;;23.25;20.25;;;;;17.96;68.33;99621.47;5092450;28;8983;-64
2022/08/19 06:08:51;;;;;;;;;18.75;15.75;;;;;18.04;67.79;99621.44;5092589;28;8842;-64
2022/08/19 06:11:18;;;;;;;;;28.50;27.00;;;;;18.10;67.70;99618.88;5091523;28;8852;-64
2022/08/19 06:13:47;;;;;;;;;20.00;17.50;;;;;18.18;67.79;99616.13;5093030;28;8867;-64
2022/08/19 06:16:19;;;;;;;;;27.25;23.50;;;;;18.25;67.28;99619.81;5092551;28;8976;-64
2022/08/19 06:18:47;;;;;;;;;24.25;22.00;;;;;18.27;67.66;99625.84;5093866;28;8894;-64
2022/08/19 06:21:14;;;;;;;;;21.50;21.50;;;;;18.31;67.36;99624.53;5092852;28;8837;-64
2022/08/19 06:23:42;;;;;;;;;16.50;15.25;;;;;18.39;67.53;99626.31;5093126;28;8872;-63
2022/08/19 06:26:11;;;;;;;;;14.00;13.50;;;;;18.45;67.48;99623.72;5091268;28;8830;-64
2022/08/19 06:28:42;;;;;;;;;20.75;18.75;;;;;18.51;67.50;99617.59;5090421;28;8842;-64
2022/08/19 06:31:10;;;;;;;;;18.60;16.80;;;;;18.57;67.24;99630.38;5091088;28;8838;-63
2022/08/19 06:33:39;;;;;;;;;22.80;21.00;;;;;18.65;67.03;99624.91;5089702;28;8980;-64
2022/08/19 06:36:08;;;;;;;;;25.00;20.80;;;;;18.77;67.03;99626.19;5090632;28;8976;-63
2022/08/19 06:38:36;;;;;;;;;21.80;21.60;;;;;18.90;66.20;99620.97;5090650;28;8867;-65
2022/08/19 06:41:03;;;;;;;;;14.80;14.60;;;;;19.05;66.64;99621.84;5091717;28;8838;-63
2022/08/19 06:43:34;;;;;;;;;24.40;18.00;;;;;19.27;65.97;99623.69;5094803;28;8818;-63
2022/08/19 06:46:06;;;;;;;;;27.20;22.40;;;;;19.46;65.58;99617.75;5094044;28;8822;-64
2022/08/19 06:48:34;;;;;;;;;24.20;22.00;;;;;19.59;65.34;99619.78;5094808;28;8964;-64
2022/08/19 06:51:12;;;;;;;;;25.40;24.60;;;;;19.65;65.61;99622.56;5094039;28;8872;-64
2022/08/19 06:53:40;;;;;;;;;26.80;22.40;;;;;19.69;65.28;99623.88;5094594;28;8840;-64
2022/08/19 06:56:08;;;;;;;;;25.20;22.60;;;;;19.71;65.20;99632.66;5093979;28;9507;-63
2022/08/19 06:58:36;;;;;;;;;30.00;24.40;;;;;19.74;65.43;99628.72;5092726;28;8988;-64
2022/08/19 07:01:04;;;;;;;;;22.20;20.80;;;;;19.80;64.98;99626.09;5093040;28;8855;-64
2022/08/19 07:03:35;;;;;;;;;28.40;26.20;;;;;19.90;65.24;99626.66;5092534;28;8818;-63
2022/08/19 07:06:03;;;;;;;;;33.40;27.80;;;;;20.02;64.42;99624.31;5092666;28;8974;-64
2022/08/19 07:08:36;;;;;;;;;24.20;22.60;;;;;20.15;64.79;99617.22;5092756;28;8849;-64
2022/08/19 07:11:09;;;;;;;;;26.40;22.80;;;;;20.27;64.45;99622.97;5092387;28;8822;-63
2022/08/19 07:13:37;;;;;;;;;22.60;20.00;;;;;20.38;64.19;99619.75;5093156;28;8862;-63
2022/08/19 07:16:05;;;;;;;;;24.20;21.00;;;;;20.54;63.64;99624.94;5093165;28;8850;-63
2022/08/19 07:18:33;;;;;;;;;27.40;23.20;;;;;20.77;63.59;99626.41;5094166;28;8829;-63
2022/08/19 07:21:01;;;;;;;;;27.60;23.80;;;;;21.02;63.26;99625.00;5092928;28;8853;-63
2022/08/19 07:23:29;;;;;;;;;22.00;19.80;;;;;21.29;62.31;99634.97;5092758;28;8850;-64
2022/08/19 07:25:57;;;;;;;;;20.20;19.00;;;;;21.58;62.13;99623.91;5093442;28;8830;-64
2022/08/19 07:28:26;;;;;;;;;11.20;10.80;;;;;21.85;61.08;99620.34;5092233;28;8880;-64
2022/08/19 07:30:54;;;;;;;;;17.40;15.20;;;;;22.07;61.04;99632.72;5091977;28;8919;-64
2022/08/19 07:33:21;;;;;;;;;18.40;16.80;;;;;22.31;60.42;99629.50;5092079;28;8972;-64
2022/08/19 07:35:50;;;;;;;;;20.60;16.00;;;;;22.49;60.68;99633.34;5092040;28;9217;-64
2022/08/19 07:38:17;;;;;;;;;20.00;18.60;;;;;22.68;60.01;99639.84;5092925;28;8955;-64
2022/08/19 07:40:45;;;;;;;;;22.00;17.80;;;;;22.89;59.96;99642.38;5091505;28;8830;-62
2022/08/19 07:43:14;;;;;;;;;17.80;17.20;;;;;23.10;59.17;99648.47;5092570;28;8845;-64
2022/08/19 07:45:44;;;;;;;;;15.60;15.00;;;;;23.28;59.38;99640.53;5093019;28;8942;-64
2022/08/19 07:48:12;;;;;;;;;15.40;14.60;;;;;23.49;59.16;99647.59;5091937;28;8869;-64
2022/08/19 07:50:40;;;;;;;;;16.00;14.00;;;;;23.61;58.56;99645.91;5092009;28;8822;-64
2022/08/19 07:53:09;;;;;;;;;24.40;19.60;;;;;23.74;58.82;99663.03;5093791;28;8965;-64
2022/08/19 07:55:36;;;;;;;;;20.40;18.40;;;;;23.85;58.34;99659.69;5096827;28;8862;-64
2022/08/19 07:58:09;;;;;;;;;18.00;18.00;;;;;23.94;58.59;99657.56;5095865;28;9515;-64
2022/08/19 08:00:37;;;;;;;;;19.80;18.20;;;;;24.02;58.25;99654.63;5093568;28;8968;-64
2022/08/19 08:03:05;;;;;;;;;17.00;14.40;;;;;24.15;58.13;99662.72;5092672;28;8861;-63
2022/08/19 08:11:03;;;;;;;;;17.00;15.00;;;;;24.53;57.53;99659.00;5092341;28;8973;-65
2022/08/19 08:13:34;;;;;;;;;15.80;14.20;;;;;24.62;57.60;99657.72;5092421;28;9532;-64
2022/08/19 08:16:06;;;;;;;;;16.40;15.00;;;;;24.69;57.25;99652.22;5093184;28;8834;-64
2022/08/19 08:18:41;;;;;;;;;15.80;14.80;;;;;24.75;57.75;99656.78;5093272;28;8935;-64
2022/08/19 08:21:09;;;;;;;;;18.20;16.20;;;;;24.81;57.17;99661.38;5092797;28;8968;-64
2022/08/19 08:23:37;;;;;;;;;13.40;10.80;;;;;24.87;57.68;99655.88;5094576;28;8903;-64
2022/08/19 08:26:06;;;;;;;;;12.60;12.20;;;;;25.02;56.89;99653.66;5095067;28;8842;-62
2022/08/19 08:28:33;;;;;;;;;17.80;16.00;;;;;25.10;57.28;99664.28;5095015;28;8822;-64
2022/08/19 08:31:01;;;;;;;;;17.00;16.00;;;;;25.10;57.07;99663.47;5094138;28;9519;-64
2022/08/19 08:33:36;;;;;;;;;15.80;15.80;;;;;25.06;57.27;99654.06;5094265;28;8838;-62
2022/08/19 08:36:04;;;;;;;;;13.80;13.80;;;;;25.05;57.62;99660.56;5095229;28;8841;-62
2022/08/19 08:38:32;;;;;;;;;17.00;16.00;;;;;25.01;57.60;99670.22;5095349;28;8829;-62
2022/08/19 08:41:06;;;;;;;;;17.40;16.60;;;;;24.93;58.04;99673.22;5094840;28;8830;-62
2022/08/19 08:43:34;;;;;;;;;20.40;17.80;;;;;24.87;58.22;99671.41;5095487;28;9198;-62
2022/08/19 08:46:02;;;;;;;;;17.60;16.20;;;;;24.84;57.94;99671.81;5096062;28;8829;-62
2022/08/19 08:48:31;;;;;;;;;20.40;15.20;;;;;24.80;58.37;99668.69;5094728;28;8838;-64
2022/08/19 08:50:59;;;;;;;;;21.20;19.60;;;;;24.81;58.50;99669.53;5088236;28;8850;-62
2022/08/19 08:53:27;;;;;;;;;22.40;17.60;;;;;24.81;58.21;99672.28;5093588;28;8919;-62
2022/08/19 08:56:00;;;;;;;;;19.20;17.20;;;;;24.84;58.55;99671.81;5106744;28;8827;-62
2022/08/19 08:58:28;;;;;;;;;18.40;17.00;;;;;24.97;57.86;99663.56;5117283;28;9009;-62
2022/08/19 09:00:56;;;;;;;;;18.60;17.00;;;;;25.08;58.07;99662.84;5116999;28;8842;-62
2022/08/19 09:03:24;;;;;;;;;16.20;15.20;;;;;25.16;57.62;99662.56;5116531;28;8844;-62
2022/08/19 09:05:52;;;;;;;;;12.80;11.60;;;;;25.11;58.35;99665.94;5116215;28;8852;-62
2022/08/19 09:08:21;;;;;;;;;14.20;14.00;;;;;25.08;57.88;99663.69;5116530;28;9225;-62
2022/08/19 09:10:50;;;;;;;;;14.60;13.40;;;;;25.19;57.76;99667.59;5115732;28;9179;-62
2022/08/19 09:13:21;;;;;;;;;12.60;12.20;;;;;25.39;56.88;99671.84;5114743;28;8827;-62
2022/08/19 09:15:49;;;;;;;;;16.20;15.20;;;;;25.62;56.97;99671.22;5115035;28;8852;-62
2022/08/19 09:18:18;;;;;;;;;15.00;12.80;;;;;25.68;57.01;99666.53;5114725;28;8835;-62
2022/08/19 09:20:47;;;;;;;;;16.60;15.20;;;;;25.63;56.82;99666.38;5115477;28;8835;-62
2022/08/19 09:23:14;;;;;;;;;15.40;15.40;;;;;25.51;56.92;99666.50;5115255;28;8954;-62
2022/08/19 09:25:42;;;;;;;;;14.60;13.40;;;;;25.43;56.92;99662.16;5105420;28;8818;-62
2022/08/19 09:28:11;;;;;;;;;11.60;11.20;;;;;25.45;57.36;99665.50;5095854;28;8841;-62
2022/08/19 09:30:53;;;;;;;;;9.60;7.60;;;;;25.65;56.75;99658.78;5093601;28;8834;-63
2022/08/19 09:33:21;;;;;;;;;14.00;12.60;;;;;25.99;55.92;99652.78;5094051;28;8842;-62
2022/08/19 09:35:48;;;;;;;;;16.00;14.80;;;;;26.30;55.58;99658.06;5094123;28;8838;-62
2022/08/19 09:38:20;;;;;;;;;17.60;15.80;;;;;26.56;54.84;99652.28;5094083;28;8846;-62
2022/08/19 09:40:48;;;;;;;;;15.60;14.20;;;;;26.91;54.31;99657.84;5093316;28;8850;-62
2022/08/19 09:43:17;;;;;;;;;21.00;19.00;;;;;27.26;53.36;99654.19;5094042;28;8872;-63
2022/08/19 09:46:00;;;;;;;;;7.60;6.00;;;;;27.40;53.33;99652.03;5094197;28;8849;-63
2022/08/19 09:48:28;;;;;;;;;14.80;13.20;;;;;27.16;54.15;99656.63;5093255;28;8826;-62
2022/08/19 09:50:57;;;;;;;;;12.00;12.00;;;;;27.06;54.06;99650.91;5095188;28;8838;-63
2022/08/19 09:53:24;;;;;;;;;18.80;15.60;;;;;27.45;53.53;99661.19;5093111;28;8861;-62
2022/08/19 09:55:52;;;;;;;;;20.80;18.60;;;;;27.93;52.25;99660.97;5093751;28;8954;-63
2022/08/19 09:58:20;;;;;;;;;21.20;18.80;;;;;28.40;51.73;99660.66;5092593;28;9514;-63
2022/08/19 10:00:53;;;;;;;;;15.60;15.60;;;;;28.95;51.00;99659.00;5092351;28;8829;-62
2022/08/19 10:03:21;;;;;;;;;18.00;17.20;;;;;29.58;50.20;99659.56;5093292;28;8861;-64
2022/08/19 10:05:56;;;;;;;;;13.40;13.40;;;;;30.28;48.02;99657.00;5092270;28;8826;-63
2022/08/19 10:08:25;;;;;;;;;18.00;17.00;;;;;30.47;47.93;99655.59;5092509;28;8834;-64
2022/08/19 10:10:54;;;;;;;;;21.00;19.60;;;;;30.16;48.50;99665.38;5090729;28;8818;-62
2022/08/19 10:13:23;;;;;;;;;21.80;20.80;;;;;30.33;48.63;99657.06;5092287;28;9192;-63
2022/08/19 10:15:51;;;;;;;;;21.80;20.40;;;;;30.82;47.91;99645.84;5091793;28;8846;-63
2022/08/19 10:18:19;;;;;;;;;22.00;20.60;;;;;31.36;47.05;99653.81;5090286;28;8849;-63
2022/08/19 10:20:46;;;;;;;;;19.20;19.00;;;;;31.81;46.31;99656.09;5090845;28;8842;-63
2022/08/19 10:23:19;;;;;;;;;18.60;17.60;;;;;31.84;45.89;99658.31;5091431;28;8926;-63
2022/08/19 10:25:47;;;;;;;;;21.60;20.80;;;;;31.81;45.38;99656.94;5093544;28;8964;-63
2022/08/19 10:28:16;;;;;;;;;22.40;21.20;;;;;32.08;46.15;99651.28;5091745;28;8980;-63
2022/08/19 10:30:45;;;;;;;;;19.80;17.80;;;;;32.58;45.30;99654.28;5092562;28;8876;-63
2022/08/19 10:33:13;;;;;;;;;17.80;16.60;;;;;33.04;44.52;99640.34;5091694;28;8854;-62
2022/08/19 10:35:41;;;;;;;;;20.60;19.20;;;;;33.38;42.99;99644.22;5092337;28;8826;-63
2022/08/19 10:38:24;;;;;;;;;21.00;20.20;;;;;33.89;42.43;99647.81;5091210;28;8846;-62
2022/08/19 10:40:58;;;;;;;;;22.00;21.40;;;;;34.19;42.34;99648.53;5091005;28;8837;-63
2022/08/19 10:43:26;;;;;;;;;22.00;19.60;;;;;34.35;42.12;99639.06;5090717;28;8837;-63
2022/08/19 10:45:55;;;;;;;;;22.40;21.00;;;;;34.64;41.60;99640.03;5090389;28;8911;-63
2022/08/19 10:48:23;;;;;;;;;27.80;25.00;;;;;34.40;42.09;99632.69;5089412;28;8857;-63
2022/08/19 10:53:49;;;;;;;;;22.00;21.60;;;;;33.35;43.64;99635.66;5067756;28;9035;-63
2022/08/19 10:59:03;;;;;;;;;22.00;21.60;;;;;33.69;42.99;99631.22;5088627;28;8881;-63
2022/08/19 11:01:32;;;;;;;;;27.20;24.60;;;;;32.83;44.07;99630.38;5091040;28;8888;-63
2022/08/19 11:04:00;;;;;;;;;27.60;25.00;;;;;31.90;45.99;99644.31;5091331;28;8865;-63
2022/08/19 11:06:29;;;;;;;;;29.80;29.00;;;;;30.99;47.10;99641.91;5091212;28;8926;-63
2022/08/19 11:08:57;;;;;;;;;26.00;24.00;;;;;30.27;48.22;99642.41;5090657;28;8872;-63
2022/08/19 11:11:24;;;;;;;;;24.60;23.40;;;;;30.10;48.18;99636.16;5092123;28;9563;-63
2022/08/19 11:13:52;;;;;;;;;24.80;22.60;;;;;30.29;47.48;99639.41;5092170;28;8825;-63
2022/08/19 11:16:21;;;;;;;;;26.00;24.60;;;;;30.68;46.88;99636.34;5091826;28;8838;-63
2022/08/19 11:18:49;;;;;;;;;22.40;19.40;;;;;31.59;45.38;99633.31;5093154;28;8922;-63
2022/08/19 11:21:18;;;;;;;;;24.40;22.80;;;;;32.53;43.93;99633.03;5091287;28;8821;-63
2022/08/19 11:23:46;;;;;;;;;23.80;23.40;;;;;33.16;42.85;99629.03;5091534;28;8981;-63
2022/08/19 11:26:15;;;;;;;;;23.20;21.80;;;;;33.39;41.28;99621.00;5091182;28;8833;-63
2022/08/19 11:28:42;;;;;;;;;26.20;24.00;;;;;33.62;41.46;99626.00;5095421;28;9276;-63
2022/08/19 11:31:11;;;;;;;;;24.20;22.00;;;;;33.90;40.76;99627.34;5096172;28;8868;-63
2022/08/19 11:33:38;;;;;;;;;24.20;23.20;;;;;34.30;40.14;99618.91;5094140;28;8870;-63
2022/08/19 11:36:07;;;;;;;;;25.40;24.20;;;;;34.32;40.49;99614.75;5094478;28;8829;-63
2022/08/19 11:38:35;;;;;;;;;29.60;28.20;;;;;34.00;41.07;99627.28;5092026;28;8854;-62
2022/08/19 11:41:03;;;;;;;;;34.20;30.60;;;;;33.93;40.93;99624.00;5093011;28;8845;-63
2022/08/19 11:43:30;;;;;;;;;34.80;32.00;;;;;33.83;40.59;99613.78;5093122;28;8952;-63
2022/08/19 11:46:03;;;;;;;;;33.20;28.20;;;;;34.03;40.20;99612.91;5092438;28;8842;-63
2022/08/19 11:48:31;;;;;;;;;27.20;25.40;;;;;34.44;39.77;99606.13;5092924;28;8822;-64
2022/08/19 11:50:59;;;;;;;;;21.80;21.40;;;;;34.72;38.97;99602.66;5093026;28;8841;-63